Time;durP1;ratioP1;P1;durP2;ratioP2;P2;SDS_P1;SDS_P2;PMS_P1;PMS_P2;Temp;Humidity;BMP_temperature;BMP_pressure;BME280_temperature;BME280_humidity;BME280_pressure;Samples;Min_cycle;Max_cycle;Signal;HPM_P1;HPM_P2
2021/10/23 00:01:40;;;;;;;9.68;6.95;;;;;;;9.93;73.59;100780.69;5110271;28;20518;-61
2021/10/23 00:04:24;;;;;;;12.50;6.90;;;;;;;9.93;73.39;100779.81;5110814;28;20043;-61
2021/10/23 00:07:08;;;;;;;;;;;;;;;9.90;73.80;100773.72;5111090;28;20054;-62
2021/10/23 00:09:58;;;;;;;12.20;7.10;;;;;;;9.89;73.73;100777.13;5111240;28;19923;-61
2021/10/23 00:12:44;;;;;;;12.57;6.53;;;;;;;9.90;73.73;100778.88;5109799;28;20759;-63
2021/10/23 00:15:28;;;;;;;12.27;6.80;;;;;;;9.91;73.38;100784.94;5111496;28;20066;-61
2021/10/23 00:18:12;;;;;;;9.18;6.60;;;;;;;9.90;73.78;100786.66;5111057;28;20039;-63
2021/10/23 00:20:56;;;;;;;8.85;6.68;;;;;;;9.92;73.69;100794.47;5110331;28;20478;-61
2021/10/23 00:23:41;;;;;;;12.65;6.45;;;;;;;9.91;73.75;100792.69;5110772;28;20454;-61
2021/10/23 00:26:25;;;;;;;9.48;6.43;;;;;;;9.90;74.03;100791.84;5110503;28;20136;-61
2021/10/23 00:29:09;;;;;;;10.70;7.50;;;;;;;9.92;73.92;100807.41;5110652;28;20112;-61
2021/10/23 00:31:53;;;;;;;8.23;5.93;;;;;;;9.92;73.86;100815.16;5110382;28;20047;-62
2021/10/23 00:34:37;;;;;;;10.80;6.82;;;;;;;9.93;73.90;100818.66;5110554;28;20051;-61
2021/10/23 00:37:21;;;;;;;10.05;6.88;;;;;;;9.92;73.70;100825.53;5110159;28;20092;-61
2021/10/23 00:40:06;;;;;;;9.98;6.35;;;;;;;9.93;73.66;100821.25;5109981;28;20058;-61
2021/10/23 00:42:52;;;;;;;9.40;6.50;;;;;;;9.92;73.66;100824.66;5109431;28;20573;-63
2021/10/23 00:45:36;;;;;;;10.43;7.30;;;;;;;9.92;73.95;100833.28;5109144;28;20111;-61
2021/10/23 00:48:20;;;;;;;11.68;7.60;;;;;;;9.93;73.94;100839.38;5109938;28;20593;-61
2021/10/23 00:51:04;;;;;;;12.55;6.40;;;;;;;9.90;74.02;100841.03;5110058;28;20556;-61
2021/10/23 00:53:48;;;;;;;;;;;;;;;9.88;74.29;100834.91;5110711;28;20105;-61
2021/10/23 00:56:32;;;;;;;11.93;6.93;;;;;;;9.87;74.07;100835.75;5109916;28;20027;-61
2021/10/23 00:59:18;;;;;;;13.68;7.30;;;;;;;9.88;74.17;100840.09;5095803;28;20094;-61
2021/10/23 01:02:04;;;;;;;10.68;7.35;;;;;;;9.88;74.05;100844.41;5095609;28;20092;-61
2021/10/23 01:04:48;;;;;;;11.85;8.63;;;;;;;9.88;73.74;100839.25;5095821;28;20047;-62
2021/10/23 01:07:34;;;;;;;13.60;8.38;;;;;;;9.87;74.03;100834.88;5096335;28;20505;-63
2021/10/23 01:10:18;;;;;;;14.88;7.78;;;;;;;9.87;74.38;100846.09;5095393;28;20120;-63
2021/10/23 01:13:03;;;;;;;16.20;9.00;;;;;;;9.87;73.97;100842.66;5095778;28;20514;-62
2021/10/23 01:15:46;;;;;;;12.75;8.18;;;;;;;9.86;74.14;100839.16;5096529;28;20038;-63
2021/10/23 01:18:30;;;;;;;15.07;8.30;;;;;;;9.86;74.29;100836.56;5096046;28;20105;-62
2021/10/23 01:21:19;;;;;;;12.68;9.00;;;;;;;9.88;74.28;100841.81;5095998;28;20066;-62
2021/10/23 01:24:08;;;;;;;13.02;9.27;;;;;;;9.86;74.19;100828.81;5096028;28;20105;-62
2021/10/23 01:26:52;;;;;;;14.18;9.43;;;;;;;9.87;74.31;100834.88;5095035;28;20093;-63
2021/10/23 01:29:36;;;;;;;20.05;9.45;;;;;;;9.87;74.12;100832.28;5094967;28;20047;-63
2021/10/23 01:32:20;;;;;;;11.98;9.48;;;;;;;9.88;74.19;100829.75;5095534;28;20043;-62
2021/10/23 01:35:05;;;;;;;11.90;9.05;;;;;;;9.88;74.19;100829.75;5095037;28;20050;-62
2021/10/23 01:37:50;;;;;;;20.73;9.85;;;;;;;9.88;74.12;100834.06;5094700;28;20055;-62
2021/10/23 01:40:34;;;;;;;12.52;9.70;;;;;;;9.89;74.33;100830.59;5094666;28;20117;-63
2021/10/23 01:43:18;;;;;;;18.40;10.23;;;;;;;9.87;74.16;100824.53;5096148;28;20066;-63
2021/10/23 01:46:03;;;;;;;14.68;10.25;;;;;;;9.88;74.35;100821.97;5095444;28;20058;-62
2021/10/23 01:48:47;;;;;;;14.50;9.52;;;;;;;9.87;74.36;100817.63;5094832;28;20047;-62
2021/10/23 01:51:33;;;;;;;15.70;10.63;;;;;;;9.87;74.05;100815.03;5095486;28;20066;-63
2021/10/23 01:54:17;;;;;;;16.80;10.35;;;;;;;9.86;74.14;100820.19;5095409;28;20090;-62
2021/10/23 01:57:01;;;;;;;15.38;9.82;;;;;;;9.86;74.24;100818.44;5094572;28;20521;-63
2021/10/23 01:59:47;;;;;;;17.27;10.85;;;;;;;9.87;74.35;100820.22;5095091;28;20043;-63
2021/10/23 02:02:32;;;;;;;21.42;11.45;;;;;;;9.85;74.32;100821.88;5095141;28;20055;-63
2021/10/23 02:05:15;;;;;;;18.75;11.48;;;;;;;9.86;74.32;100817.59;5095123;28;20050;-62
2021/10/23 02:07:59;;;;;;;19.20;10.95;;;;;;;9.85;74.18;100819.28;5093724;28;20058;-63
2021/10/23 02:10:43;;;;;;;17.33;10.07;;;;;;;9.86;74.39;100820.19;5094241;28;20066;-63
2021/10/23 02:13:27;;;;;;;19.85;10.73;;;;;;;9.85;74.16;100826.19;5094618;28;20102;-63
2021/10/23 02:16:12;;;;;;;16.75;10.40;;;;;;;9.84;74.53;100817.53;5094369;28;20131;-63
2021/10/23 02:18:59;;;;;;;;;;;;;;;9.83;74.66;100814.91;5095809;28;20185;-63
2021/10/23 02:21:43;;;;;;;16.20;11.32;;;;;;;9.81;73.88;100801.03;5094236;28;19919;-63
2021/10/23 02:24:27;;;;;;;20.45;10.65;;;;;;;9.79;74.19;100803.56;5095033;28;20536;-63
2021/10/23 02:27:10;;;;;;;19.17;10.77;;;;;;;9.79;74.15;100808.75;5094858;28;20043;-63
2021/10/23 02:29:54;;;;;;;23.02;11.40;;;;;;;9.80;74.53;100799.25;5094160;28;20564;-63
2021/10/23 02:32:38;;;;;;;15.48;10.73;;;;;;;9.79;74.23;100816.53;5093820;28;20094;-62
2021/10/23 02:35:22;;;;;;;19.75;12.32;;;;;;;9.80;74.54;100826.06;5093672;28;20055;-63
2021/10/23 02:38:06;;;;;;;15.30;10.13;;;;;;;9.80;74.50;100830.31;5094590;28;20093;-62
2021/10/23 02:40:51;;;;;;;18.17;11.00;;;;;;;9.80;74.10;100826.06;5093612;28;20109;-63
2021/10/23 02:43:35;;;;;;;;;;;;;;;9.78;74.29;100824.22;5094465;28;20042;-63
2021/10/23 02:46:20;;;;;;;16.98;12.10;;;;;;;9.78;74.56;100816.44;5094024;28;19968;-63
2021/10/23 02:49:07;;;;;;;18.27;11.68;;;;;;;9.79;74.19;100818.22;5093492;28;20407;-63
2021/10/23 02:51:51;;;;;;;16.83;11.57;;;;;;;9.78;74.32;100811.28;5093230;28;20104;-63
2021/10/23 02:54:36;;;;;;;20.42;12.40;;;;;;;9.78;74.62;100807.00;5093589;28;20387;-63
2021/10/23 02:57:20;;;;;;;17.77;11.52;;;;;;;9.77;74.49;100799.16;5093200;28;20537;-63
2021/10/23 03:00:06;;;;;;;16.30;10.57;;;;;;;9.77;74.57;100788.81;5094277;28;20051;-62
2021/10/23 03:02:53;;;;;;;20.25;12.13;;;;;;;9.75;74.38;100776.69;5093479;28;20125;-63
2021/10/23 03:05:37;;;;;;;19.67;11.88;;;;;;;9.75;74.39;100776.69;5094190;28;20042;-62
2021/10/23 03:08:21;;;;;;;;;;;;;;;9.72;74.57;100781.81;5094686;28;20051;-62
2021/10/23 03:11:06;;;;;;;19.52;11.65;;;;;;;9.71;74.41;100780.03;5093522;28;19923;-63
2021/10/23 03:13:50;;;;;;;18.38;11.05;;;;;;;9.72;74.67;100780.91;5093529;28;20077;-63
2021/10/23 03:16:34;;;;;;;;;;;;;;;9.71;74.40;100790.41;5093555;28;20513;-63
2021/10/23 03:19:18;;;;;;;18.50;11.00;;;;;;;9.70;74.66;100792.91;5093450;28;19918;-63
2021/10/23 03:22:02;;;;;;;18.73;11.57;;;;;;;9.72;74.68;100791.25;5092567;28;20097;-63
2021/10/23 03:24:46;;;;;;;18.08;11.90;;;;;;;9.72;74.60;100793.84;5094051;28;20066;-63
2021/10/23 03:27:31;;;;;;;15.57;10.30;;;;;;;9.71;74.44;100784.31;5093334;28;20047;-62
2021/10/23 03:30:17;;;;;;;20.45;11.82;;;;;;;9.71;74.34;100797.25;5093524;28;20051;-62
2021/10/23 03:33:02;;;;;;;21.42;12.07;;;;;;;9.69;74.41;100810.16;5093798;28;20055;-63
2021/10/23 03:35:46;;;;;;;17.25;10.65;;;;;;;9.69;74.45;100802.41;5093650;28;20047;-63
2021/10/23 03:38:30;;;;;;;18.42;11.50;;;;;;;9.68;74.68;100803.22;5093233;28;20456;-63
2021/10/23 03:41:14;;;;;;;22.80;11.85;;;;;;;9.66;74.45;100810.06;5093712;28;20086;-63
2021/10/23 03:43:58;;;;;;;19.58;12.43;;;;;;;9.65;74.42;100810.88;5093530;28;20051;-63
2021/10/23 03:46:42;;;;;;;19.98;12.68;;;;;;;9.64;74.67;100818.63;5093015;28;20091;-62
2021/10/23 03:49:26;;;;;;;18.02;13.18;;;;;;;9.63;74.32;100822.91;5093706;28;20386;-63
2021/10/23 03:52:13;;;;;;;18.92;12.15;;;;;;;9.64;74.37;100837.59;5093787;28;20051;-63
2021/10/23 03:54:58;;;;;;;20.77;13.80;;;;;;;9.65;74.44;100839.38;5092792;28;20051;-63
2021/10/23 03:57:42;;;;;;;22.42;13.38;;;;;;;9.63;74.33;100843.59;5093417;28;20465;-63
2021/10/23 04:00:26;;;;;;;20.90;12.82;;;;;;;9.63;74.61;100838.44;5092664;28;20402;-63
2021/10/23 04:03:10;;;;;;;21.23;13.48;;;;;;;9.61;74.59;100827.16;5093421;28;20506;-63
2021/10/23 04:05:54;;;;;;;25.27;14.65;;;;;;;9.60;74.75;100822.78;5093314;28;20119;-63
2021/10/23 04:08:38;;;;;;;23.77;13.82;;;;;;;9.59;74.35;100821.03;5093299;28;20051;-63
2021/10/23 04:11:22;;;;;;;25.23;15.52;;;;;;;9.58;74.65;100819.28;5092937;28;20616;-62
2021/10/23 04:14:06;;;;;;;22.75;14.25;;;;;;;9.59;74.65;100831.38;5093376;28;20502;-63
2021/10/23 04:16:50;;;;;;;21.13;15.23;;;;;;;9.58;74.69;100847.75;5093391;28;20092;-62
2021/10/23 04:19:34;;;;;;;;;;;;;;;9.57;74.64;100851.19;5093528;28;20104;-63
2021/10/23 04:22:18;;;;;;;22.42;15.57;;;;;;;9.55;74.56;100850.25;5093308;28;19997;-63
2021/10/23 04:25:02;;;;;;;22.63;14.35;;;;;;;9.53;74.53;100852.78;5092297;28;20469;-63
2021/10/23 04:27:47;;;;;;;27.80;16.58;;;;;;;9.53;74.82;100850.19;5093294;28;20097;-63
2021/10/23 04:30:32;;;;;;;24.83;16.42;;;;;;;9.52;74.66;100863.09;5092655;28;20484;-63
2021/10/23 04:33:19;;;;;;;24.85;16.30;;;;;;;9.52;74.09;100870.84;5093570;28;20073;-63
2021/10/23 04:36:03;;;;;;;21.73;14.27;;;;;;;9.50;74.56;100868.19;5096122;28;20173;-62
2021/10/23 04:38:48;;;;;;;24.60;15.50;;;;;;;9.51;74.35;100858.75;5095695;28;20411;-63
2021/10/23 04:41:32;;;;;;;;;;;;;;;9.47;74.36;100856.88;5096625;28;20121;-62
2021/10/23 04:44:16;;;;;;;24.88;15.38;;;;;;;9.49;74.35;100865.56;5096829;28;20015;-63
2021/10/23 04:47:00;;;;;;;27.05;16.27;;;;;;;9.48;74.63;100876.75;5095528;28;20067;-62
2021/10/23 04:49:44;;;;;;;21.40;14.90;;;;;;;9.49;74.45;100875.91;5095924;28;20453;-62
2021/10/23 04:52:28;;;;;;;22.85;15.32;;;;;;;9.49;74.33;100874.22;5096362;28;20054;-62
2021/10/23 04:55:12;;;;;;;25.92;15.98;;;;;;;9.49;74.42;100884.56;5095340;28;20048;-63
2021/10/23 04:58:01;;;;;;;25.13;15.82;;;;;;;9.50;74.49;100883.72;5096419;28;20044;-62
2021/10/23 05:00:46;;;;;;;25.70;15.93;;;;;;;9.50;74.37;100883.72;5096158;28;20588;-62
2021/10/23 05:03:30;;;;;;;25.55;14.85;;;;;;;9.51;74.52;100884.63;5095806;28;20055;-63
2021/10/23 05:06:14;;;;;;;;;;;;;;;9.49;74.53;100883.69;5095814;28;20039;-63
2021/10/23 05:08:58;;;;;;;23.25;14.00;;;;;;;9.49;74.55;100891.44;5096700;28;19962;-62
2021/10/23 05:11:42;;;;;;;23.33;15.10;;;;;;;9.49;74.85;100882.00;5095470;28;20050;-63
2021/10/23 05:14:26;;;;;;;26.58;14.68;;;;;;;9.49;74.88;100892.34;5096268;28;20043;-62
2021/10/23 05:17:10;;;;;;;29.42;15.27;;;;;;;9.49;74.42;100883.69;5095361;28;20051;-62
2021/10/23 05:19:54;;;;;;;24.60;15.15;;;;;;;9.47;74.68;100888.81;5096132;28;20468;-63
2021/10/23 05:22:40;;;;;;;27.33;15.20;;;;;;;9.48;74.87;100880.22;5095885;28;20094;-63
2021/10/23 05:25:27;;;;;;;28.98;15.00;;;;;;;9.47;74.69;100877.56;5094942;28;20047;-62
2021/10/23 05:28:12;;;;;;;28.88;14.25;;;;;;;9.45;74.85;100874.94;5094887;28;20135;-62
2021/10/23 05:30:55;;;;;;;31.48;16.70;;;;;;;9.44;74.41;100875.75;5095996;28;20051;-63
2021/10/23 05:33:40;;;;;;;27.73;16.58;;;;;;;9.42;74.38;100867.94;5095619;28;20042;-62
2021/10/23 05:36:24;;;;;;;28.15;15.68;;;;;;;9.41;74.79;100867.91;5094879;28;20055;-63
2021/10/23 05:39:07;;;;;;;27.83;15.43;;;;;;;9.39;74.64;100873.03;5095574;28;20100;-62
2021/10/23 05:41:51;;;;;;;21.00;14.43;;;;;;;9.39;74.82;100870.44;5095580;28;20086;-62
2021/10/23 05:44:35;;;;;;;18.85;14.25;;;;;;;9.40;74.98;100872.19;5095771;28;20046;-63
2021/10/23 05:47:19;;;;;;;;;;;;;;;9.40;74.60;100877.38;5095812;28;20165;-63
2021/10/23 05:50:04;;;;;;;24.92;14.65;;;;;;;9.42;74.74;100875.69;5095584;28;20363;-63
2021/10/23 05:52:48;;;;;;;23.70;14.20;;;;;;;9.42;75.08;100880.88;5094483;28;20050;-63
2021/10/23 05:55:32;;;;;;;22.30;15.50;;;;;;;9.43;75.05;100872.28;5095417;28;20047;-62
2021/10/23 05:58:16;;;;;;;24.60;15.55;;;;;;;9.44;74.72;100879.22;5094906;28;20100;-62
2021/10/23 06:01:06;;;;;;;20.00;14.80;;;;;;;9.46;74.89;100879.28;5095087;28;20089;-62
2021/10/23 06:03:50;;;;;;;23.40;15.07;;;;;;;9.45;74.95;100883.56;5094889;28;20039;-63
2021/10/23 06:06:34;;;;;;;24.25;14.77;;;;;;;9.46;74.73;100892.22;5094398;28;20109;-63
2021/10/23 06:09:19;;;;;;;;;;;;;;;9.43;74.82;100892.97;5094777;28;20050;-62
2021/10/23 06:12:04;;;;;;;25.75;16.45;;;;;;;9.44;74.86;100893.88;5095334;28;19965;-62
2021/10/23 06:14:48;;;;;;;22.25;15.77;;;;;;;9.44;74.75;100888.69;5093575;28;20054;-62
2021/10/23 06:17:32;;;;;;;25.60;16.88;;;;;;;9.42;74.84;100896.38;5095114;28;20055;-62
2021/10/23 06:20:16;;;;;;;;;;;;;;;9.41;74.91;100899.84;5094213;28;20074;-63
2021/10/23 06:23:00;;;;;;;24.38;14.85;;;;;;;9.40;74.89;100899.75;5094096;28;20279;-62
2021/10/23 06:25:47;;;;;;;23.88;14.27;;;;;;;9.39;75.17;100904.06;5095012;28;20505;-62
2021/10/23 06:28:36;;;;;;;28.95;16.65;;;;;;;9.36;74.86;100905.66;5093846;28;20584;-62
2021/10/23 06:31:20;;;;;;;22.58;14.57;;;;;;;9.35;74.88;100914.25;5094177;28;20039;-62
2021/10/23 06:34:04;;;;;;;17.77;13.07;;;;;;;9.32;74.83;100914.16;5094602;28;20190;-63
2021/10/23 06:36:48;;;;;;;25.15;15.25;;;;;;;9.30;74.65;100903.75;5093619;28;20090;-62
2021/10/23 06:39:32;;;;;;;24.42;14.70;;;;;;;9.28;74.68;100908.88;5094368;28;20584;-62
2021/10/23 06:42:16;;;;;;;23.63;14.63;;;;;;;9.28;74.93;100910.56;5093347;28;20055;-63
2021/10/23 06:44:59;;;;;;;22.95;15.23;;;;;;;9.28;74.88;100916.63;5094572;28;20096;-63
2021/10/23 06:47:43;;;;;;;22.30;15.50;;;;;;;9.27;74.93;100913.97;5093108;28;20055;-62
2021/10/23 06:50:28;;;;;;;;;;;;;;;9.26;74.62;100926.03;5093597;28;20042;-62
2021/10/23 06:53:11;;;;;;;24.02;15.02;;;;;;;9.26;74.98;100928.63;5094148;28;19961;-63
2021/10/23 06:55:55;;;;;;;21.58;14.68;;;;;;;9.28;75.02;100929.56;5093922;28;20518;-62
2021/10/23 06:58:39;;;;;;;21.08;14.60;;;;;;;9.29;75.18;100939.09;5094127;28;20059;-62
2021/10/23 07:01:23;;;;;;;24.50;14.70;;;;;;;9.31;74.94;100943.44;5094102;28;20537;-63
2021/10/23 07:04:07;;;;;;;25.65;16.23;;;;;;;9.32;74.75;100959.00;5094400;28;20518;-63
2021/10/23 07:06:51;;;;;;;23.55;15.82;;;;;;;9.33;74.91;100972.84;5093342;28;20059;-63
2021/10/23 07:09:38;;;;;;;23.65;15.82;;;;;;;9.33;74.88;100972.84;5094101;28;20093;-62
2021/10/23 07:12:24;;;;;;;22.77;16.02;;;;;;;9.33;74.86;100973.69;5092740;28;20055;-63
2021/10/23 07:15:09;;;;;;;23.95;15.65;;;;;;;9.34;74.78;100978.06;5092877;28;20043;-63
2021/10/23 07:17:53;;;;;;;40.17;15.30;;;;;;;9.36;74.87;100978.09;5093793;28;20066;-63
2021/10/23 07:20:37;;;;;;;20.27;14.80;;;;;;;9.37;74.90;100987.63;5093878;28;20098;-62
2021/10/23 07:23:21;;;;;;;21.08;15.05;;;;;;;9.37;74.93;100988.50;5094115;28;20189;-62
2021/10/23 07:26:07;;;;;;;20.23;14.88;;;;;;;9.38;74.92;100989.38;5093512;28;20097;-62
2021/10/23 07:28:52;;;;;;;22.80;15.73;;;;;;;9.38;74.90;100989.38;5092977;28;20100;-63
2021/10/23 07:31:36;;;;;;;;;;;;;;;9.37;75.25;100996.28;5094146;28;20498;-62
2021/10/23 07:34:25;;;;;;;21.85;15.65;;;;;;;9.37;74.97;101001.44;5092504;28;20428;-63
2021/10/23 07:37:09;;;;;;;24.52;16.95;;;;;;;9.39;75.00;100999.81;5093041;28;20063;-63
2021/10/23 07:39:54;;;;;;;22.13;15.23;;;;;;;9.40;74.87;101005.84;5093200;28;20209;-63
2021/10/23 07:42:38;;;;;;;24.92;15.35;;;;;;;9.41;75.00;101015.38;5093905;28;20484;-63
2021/10/23 07:45:25;;;;;;;24.10;16.80;;;;;;;9.40;74.95;101024.84;5092978;28;20411;-63
2021/10/23 07:48:10;;;;;;;23.20;15.80;;;;;;;9.41;75.18;101023.13;5093617;28;20493;-63
2021/10/23 07:50:54;;;;;;;22.70;15.68;;;;;;;9.41;75.19;101028.31;5093132;28;20047;-63
2021/10/23 07:53:38;;;;;;;;;;;;;;;9.41;74.89;101028.31;5093913;28;20043;-61
2021/10/23 07:56:22;;;;;;;20.98;15.73;;;;;;;9.41;75.34;101029.22;5093600;28;20014;-61
2021/10/23 07:59:07;;;;;;;25.13;17.40;;;;;;;9.42;75.15;101037.84;5093717;28;20050;-63
2021/10/23 08:01:51;;;;;;;23.63;16.42;;;;;;;9.42;75.24;101036.13;5092926;28;20054;-63
2021/10/23 08:04:35;;;;;;;24.85;16.40;;;;;;;9.44;75.23;101043.94;5092145;28;20505;-61
2021/10/23 08:07:21;;;;;;;24.20;17.23;;;;;;;9.44;75.30;101043.94;5093149;28;20097;-63
2021/10/23 08:10:05;;;;;;;25.30;17.15;;;;;;;9.44;75.07;101050.00;5097534;28;20059;-63
2021/10/23 08:12:51;;;;;;;25.75;17.50;;;;;;;9.45;75.33;101056.06;5096304;28;20047;-63
2021/10/23 08:15:35;;;;;;;27.38;17.50;;;;;;;9.46;75.35;101057.84;5096606;28;20139;-63
2021/10/23 08:18:22;;;;;;;21.38;15.65;;;;;;;9.45;75.12;101062.09;5096587;28;20043;-63
2021/10/23 08:21:06;;;;;;;23.85;16.80;;;;;;;9.47;75.33;101063.88;5096498;28;20105;-62
2021/10/23 08:23:53;;;;;;;21.67;15.57;;;;;;;9.47;75.13;101069.06;5097045;28;20042;-62
2021/10/23 08:26:40;;;;;;;24.08;16.15;;;;;;;9.47;75.30;101063.88;5096173;28;20042;-63
2021/10/23 08:29:24;;;;;;;20.80;16.13;;;;;;;9.48;75.40;101063.06;5096640;28;20047;-62
2021/10/23 08:32:08;;;;;;;23.85;15.98;;;;;;;9.49;75.32;101072.59;5097124;28;20517;-63
2021/10/23 08:34:52;;;;;;;25.50;17.98;;;;;;;9.49;75.30;101063.13;5096596;28;20109;-63
2021/10/23 08:37:39;;;;;;;;;;;;;;;9.47;75.52;101062.19;5097474;28;20101;-62
2021/10/23 08:40:29;;;;;;;24.13;16.08;;;;;;;9.48;75.23;101061.38;5125050;27;19962;-63
2021/10/23 08:43:16;;;;;;;22.67;15.10;;;;;;;9.50;75.33;101061.41;5096610;28;20051;-62
2021/10/23 08:46:05;;;;;;;22.50;15.48;;;;;;;9.51;75.50;101068.34;5096077;28;20059;-63
2021/10/23 08:48:54;;;;;;;31.98;15.35;;;;;;;9.52;75.49;101070.09;5096292;28;20105;-63
2021/10/23 08:51:38;;;;;;;25.10;16.35;;;;;;;9.53;75.46;101085.69;5095983;28;20498;-63
2021/10/23 08:54:22;;;;;;;25.17;15.65;;;;;;;9.53;75.42;101075.34;5096739;28;20514;-63
2021/10/23 08:57:07;;;;;;;25.20;16.33;;;;;;;9.55;75.52;101076.28;5095965;28;20055;-63
2021/10/23 08:59:58;;;;;;;;;;;;;;;9.55;75.36;101078.84;5096842;28;20054;-63
2021/10/23 09:02:45;;;;;;;27.90;14.88;;;;;;;9.57;75.42;101078.94;5095409;28;19923;-63
2021/10/23 09:05:32;;;;;;;23.48;14.80;;;;;;;9.59;75.50;101079.84;5095130;28;20127;-62
2021/10/23 09:08:19;;;;;;;27.13;15.07;;;;;;;9.60;75.65;101082.50;5094866;28;20047;-62
2021/10/23 09:11:03;;;;;;;25.48;15.38;;;;;;;9.61;75.54;101083.38;5096546;28;20046;-63
2021/10/23 09:13:49;;;;;;;26.88;15.18;;;;;;;9.63;75.65;101080.88;5095822;28;20173;-63
2021/10/23 09:16:33;;;;;;;25.60;15.02;;;;;;;9.63;75.68;101078.28;5096278;28;20149;-63
2021/10/23 09:19:22;;;;;;;25.25;14.35;;;;;;;9.64;75.57;101086.09;5095812;28;20039;-63
2021/10/23 09:22:22;;;;;;;24.48;14.23;;;;;;;9.64;75.74;101091.25;5095326;28;20051;-63
2021/10/23 09:25:32;;;;;;;24.95;13.90;;;;;;;9.65;75.78;101093.03;5095803;28;20062;-63
2021/10/23 09:28:28;;;;;;;27.20;14.38;;;;;;;9.66;75.45;101091.31;5095643;28;20132;-63
2021/10/23 09:31:12;;;;;;;24.35;13.52;;;;;;;9.66;75.42;101102.56;5094834;28;20083;-63
2021/10/23 09:34:02;;;;;;;24.25;13.35;;;;;;;9.67;75.44;101098.25;5095338;28;20108;-62
2021/10/23 09:36:51;;;;;;;23.25;12.93;;;;;;;9.68;75.67;101100.91;5095376;28;20097;-62
2021/10/23 09:39:36;;;;;;;22.00;13.90;;;;;;;9.69;75.64;101099.19;5094605;28;20072;-62
2021/10/23 09:42:20;;;;;;;21.42;13.82;;;;;;;9.69;75.90;101096.59;5095044;28;20112;-63
2021/10/23 09:45:05;;;;;;;23.33;14.43;;;;;;;9.68;75.56;101098.31;5095907;28;20047;-63
2021/10/23 09:47:50;;;;;;;20.77;14.10;;;;;;;9.70;75.58;101106.13;5094618;28;20122;-63
2021/10/23 09:50:35;;;;;;;22.67;15.13;;;;;;;9.70;75.59;101101.84;5094397;28;20093;-63
2021/10/23 09:53:19;;;;;;;;;;;;;;;9.69;75.83;101105.25;5094896;28;20051;-63
2021/10/23 09:56:08;;;;;;;24.80;14.40;;;;;;;9.70;75.82;101108.72;5095497;28;20453;-62
2021/10/23 09:59:00;;;;;;;23.25;13.55;;;;;;;9.71;75.76;101113.97;5094917;28;20097;-63
2021/10/23 10:01:44;;;;;;;22.40;13.77;;;;;;;9.71;75.83;101113.97;5094589;28;20093;-63
2021/10/23 10:04:29;;;;;;;22.13;14.90;;;;;;;9.72;75.47;101109.66;5094893;28;20102;-63
2021/10/23 10:07:13;;;;;;;16.90;13.00;;;;;;;9.74;75.68;101115.78;5094581;28;20157;-63
2021/10/23 10:09:57;;;;;;;21.33;14.23;;;;;;;9.73;75.77;101112.28;5094495;28;20051;-63
2021/10/23 10:12:42;;;;;;;23.17;14.75;;;;;;;9.74;75.73;101111.47;5094523;28;20055;-64
2021/10/23 10:15:29;;;;;;;27.40;13.63;;;;;;;9.75;75.54;101113.22;5093797;28;20071;-63
2021/10/23 10:18:15;;;;;;;24.35;13.27;;;;;;;9.77;75.57;101117.59;5094185;28;20067;-63
2021/10/23 10:21:00;;;;;;;22.60;14.10;;;;;;;9.77;75.55;101115.00;5093884;28;20047;-63
2021/10/23 10:23:45;;;;;;;23.02;13.65;;;;;;;9.77;75.63;101120.16;5094232;28;20498;-63
2021/10/23 10:26:35;;;;;;;20.20;13.27;;;;;;;9.78;75.66;101121.94;5094159;28;20043;-63
2021/10/23 10:29:29;;;;;;;27.27;14.93;;;;;;;9.78;75.86;101122.84;5093832;28;20456;-63
2021/10/23 10:35:23;;;;;;;19.75;12.60;;;;;;;9.79;76.08;101126.28;5094696;28;20553;-63
2021/10/23 10:38:30;;;;;;;21.88;12.68;;;;;;;9.78;75.72;101122.84;5093962;28;20121;-64
2021/10/23 10:44:19;;;;;;;21.80;13.50;;;;;;;9.80;75.99;101128.06;5094774;28;20518;-64
2021/10/23 10:47:07;;;;;;;24.90;12.88;;;;;;;9.79;75.51;101119.44;5094406;28;20059;-61
2021/10/23 10:49:53;;;;;;;23.60;13.60;;;;;;;9.81;75.99;101124.66;5093804;28;20123;-63
2021/10/23 10:52:40;;;;;;;20.25;12.73;;;;;;;9.82;75.78;101124.69;5094628;28;20101;-62
2021/10/23 10:55:24;;;;;;;22.20;13.20;;;;;;;9.83;75.66;101120.41;5093875;28;20054;-63
2021/10/23 10:58:10;;;;;;;20.30;12.73;;;;;;;9.84;75.94;101120.44;5094015;28;20170;-63
2021/10/23 11:01:33;;;;;;;19.40;13.18;;;;;;;9.84;75.94;101120.44;5093171;28;20051;-62
2021/10/23 11:04:17;;;;;;;20.88;13.23;;;;;;;9.84;75.85;101129.94;5093228;28;20045;-63
2021/10/23 11:07:01;;;;;;;23.40;13.95;;;;;;;9.85;75.39;101126.53;5093868;28;20094;-62
2021/10/23 11:09:45;;;;;;;23.02;13.30;;;;;;;9.85;75.76;101122.22;5094115;28;20129;-63
2021/10/23 11:12:36;;;;;;;23.92;13.30;;;;;;;9.86;75.80;101117.94;5093772;28;20043;-63
2021/10/23 11:15:43;;;;;;;21.90;12.65;;;;;;;9.86;76.00;101118.81;5093108;28;20399;-63
2021/10/23 11:18:27;;;;;;;23.95;13.25;;;;;;;9.87;75.73;101120.56;5093319;28;20127;-63
2021/10/23 11:21:12;;;;;;;22.13;13.18;;;;;;;9.88;75.90;101111.09;5093898;28;20117;-62
2021/10/23 11:23:57;;;;;;;26.83;13.43;;;;;;;9.88;75.92;101111.09;5093215;28;20506;-63
2021/10/23 11:26:51;;;;;;;21.98;12.32;;;;;;;9.89;75.96;101110.25;5093012;28;20101;-63
2021/10/23 11:29:37;;;;;;;18.52;11.82;;;;;;;9.92;75.78;101115.56;5092594;28;20086;-63
2021/10/23 11:32:24;;;;;;;21.77;12.43;;;;;;;9.89;76.03;101108.56;5093860;28;20058;-63
2021/10/23 11:35:08;;;;;;;24.38;13.63;;;;;;;9.91;75.88;101121.56;5093381;28;20054;-62
2021/10/23 11:37:53;;;;;;;18.30;11.85;;;;;;;9.92;75.59;101112.97;5093612;28;20094;-63
2021/10/23 11:40:39;;;;;;;16.15;12.15;;;;;;;9.93;75.62;101117.31;5093667;28;20069;-63
2021/10/23 11:43:23;;;;;;;22.23;11.98;;;;;;;9.94;75.54;101113.03;5092480;28;20054;-63
2021/10/23 11:46:12;;;;;;;15.90;11.52;;;;;;;9.93;76.04;101117.31;5092679;28;20101;-62
2021/10/23 11:49:03;;;;;;;17.80;11.48;;;;;;;9.95;75.78;101109.63;5092535;28;20071;-63
2021/10/23 11:51:51;;;;;;;19.40;11.13;;;;;;;9.94;76.05;101113.91;5093798;28;20415;-63
2021/10/23 11:54:43;;;;;;;18.73;11.77;;;;;;;9.95;75.58;101115.66;5092496;28;20043;-63
2021/10/23 11:57:41;;;;;;;20.48;11.63;;;;;;;9.95;75.72;101114.81;5093096;28;20514;-63
2021/10/23 12:00:28;;;;;;;14.93;10.95;;;;;;;9.95;75.66;101109.63;5092635;28;20090;-63
2021/10/23 12:03:15;;;;;;;18.95;11.25;;;;;;;9.97;75.56;101113.13;5092494;28;20097;-63
2021/10/23 12:06:31;;;;;;;17.50;10.90;;;;;;;9.97;75.65;101113.13;5092280;28;20097;-63
2021/10/23 12:09:20;;;;;;;17.55;11.23;;;;;;;9.97;75.99;101108.84;5091037;28;20414;-62
2021/10/23 12:12:07;;;;;;;17.23;10.60;;;;;;;9.98;76.03;101114.88;5092215;28;20047;-62
2021/10/23 12:14:54;;;;;;;17.13;11.52;;;;;;;9.98;75.73;101115.78;5092576;28;20410;-63
2021/10/23 12:17:40;;;;;;;16.02;10.60;;;;;;;10.00;76.13;101113.22;5092284;28;20055;-62
2021/10/23 12:20:24;;;;;;;18.85;11.20;;;;;;;9.99;75.85;101114.06;5092289;28;20120;-63
2021/10/23 12:23:08;;;;;;;16.25;9.82;;;;;;;10.02;75.62;101109.00;5093412;28;20105;-63
2021/10/23 12:26:05;;;;;;;17.13;10.77;;;;;;;10.00;75.65;101103.78;5092937;28;20158;-62
2021/10/23 12:29:01;;;;;;;16.95;10.68;;;;;;;10.00;75.99;101102.88;5077776;28;20062;-63
2021/10/23 12:31:58;;;;;;;17.05;10.13;;;;;;;10.01;76.02;101095.19;5092961;28;20513;-63
2021/10/23 12:34:51;;;;;;;16.85;11.05;;;;;;;10.00;75.93;101083.06;5092533;28;20055;-63
2021/10/23 12:37:37;;;;;;;16.48;10.50;;;;;;;10.03;75.81;101084.84;5093322;28;20098;-62
2021/10/23 12:40:24;;;;;;;17.08;10.30;;;;;;;10.03;76.04;101087.44;5092447;28;20093;-63
2021/10/23 12:43:13;;;;;;;14.38;11.48;;;;;;;10.03;76.01;101088.34;5092334;28;20055;-62
2021/10/23 12:45:57;;;;;;;12.45;9.88;;;;;;;10.05;75.70;101091.84;5092131;28;20075;-62
2021/10/23 12:48:41;;;;;;;15.57;10.98;;;;;;;10.06;75.86;101087.56;5092949;28;20092;-63
2021/10/23 12:51:30;;;;;;;14.98;9.73;;;;;;;10.06;75.67;101088.44;5092875;28;20564;-62
2021/10/23 12:54:16;;;;;;;18.75;11.00;;;;;;;10.07;75.64;101089.31;5094387;28;20047;-63
2021/10/23 12:57:01;;;;;;;15.75;10.02;;;;;;;10.09;75.97;101077.31;5096728;28;20055;-63